Algosea — CFN4229 — position and weather

sailwx.info

Track history (hours):
 
Tides and Currents Weather Stations Pressure Air Temp Water Temp Dewpoint Dewpoint Depression Visibility Wind Speed Wind Dir Waves Ship Positions

Algosea

Last reported at 2014-Nov-19 05:06 UTC. Time now 2014-Nov-24 12:34 UTC.
Position N 44°42' W 063°39'.

Length 144 m; draft 6.5 m.

Type: Ship (hazmat cat C). MMSI: 316006868.

Date/timePositionNaut miles runAvg speedWind from/ knotsBaromVisibWave heightAir tempDewpointWater temp
2014-Nov-19 05:06N 44°42' W 063°39'0 0.0
2014-Nov-19 04:27N 44°42' W 063°39'0 0.0
2014-Nov-19 03:27N 44°42' W 063°39'0 0.0
2014-Nov-19 02:24N 44°42' W 063°39'0 0.1
2014-Nov-19 01:30N 44°42' W 063°39'0 0.0
2014-Nov-19 00:30N 44°42' W 063°39'0 0.0
2014-Nov-18 23:30N 44°42' W 063°39'0 0.0
2014-Nov-18 22:33N 44°42' W 063°39'0 0.0
2014-Nov-18 21:33N 44°42' W 063°39'0 0.0
2014-Nov-18 20:33N 44°42' W 063°39'0 0.0
2014-Nov-18 19:33N 44°42' W 063°39'0 0.0
2014-Nov-18 18:33N 44°42' W 063°39'0 0.0
2014-Nov-18 17:33N 44°42' W 063°39'0 0.0
2014-Nov-18 16:33N 44°42' W 063°39'0 0.0
2014-Nov-18 15:24N 44°42' W 063°39'0 0.0
2014-Nov-18 14:30N 44°42' W 063°39'0 0.0
2014-Nov-18 13:33N 44°42' W 063°39'0 0.0
2014-Nov-18 12:33N 44°42' W 063°39'0 0.0
2014-Nov-18 11:33N 44°42' W 063°39'0 0.0
2014-Nov-18 10:33N 44°42' W 063°39'3 2.9
2014-Nov-18 09:33N 44°40' W 063°35'9 8.6
2014-Nov-18 08:33N 44°32' W 063°31'9 8.8
2014-Nov-18 07:33N 44°28' W 063°20'1210.6
2014-Nov-18 06:24N 44°29' W 063°03'  
2014-Nov-14 12:34N 46°31' W 072°13'1312.8
2014-Nov-14 11:33N 46°23' W 072°27'1211.6
2014-Nov-14 10:33N 46°16' W 072°41'1812.5
2014-Nov-14 09:09N 46°05' W 073°01'811.6
2014-Nov-14 08:29N 46°01' W 073°10'1 1.0
2014-Nov-14 07:33N 45°60' W 073°10'0 0.0
2014-Nov-14 06:32N 45°60' W 073°10'0 0.0
2014-Nov-14 02:32N 45°60' W 073°10'0 0.0
2014-Nov-14 01:26N 45°60' W 073°10'0 0.0
2014-Nov-14 00:29N 45°60' W 073°10'0 0.0
2014-Nov-13 23:29N 45°60' W 073°10'0 0.0
2014-Nov-13 20:32N 45°60' W 073°10'0 0.0
2014-Nov-13 19:32N 45°60' W 073°10'0 0.0
2014-Nov-13 18:32N 45°60' W 073°10'0 0.0
2014-Nov-13 16:23N 45°60' W 073°10'0 0.0
2014-Nov-13 15:32N 45°60' W 073°10'0 0.0
2014-Nov-13 14:32N 45°60' W 073°10'0 0.0
2014-Nov-13 13:32N 45°60' W 073°10'0 0.0
2014-Nov-13 12:32N 45°60' W 073°10'0 0.0
2014-Nov-13 11:32N 45°60' W 073°10'0 0.0
2014-Nov-13 10:32N 45°60' W 073°10'0 0.3
2014-Nov-13 09:26N 46°00' W 073°10'0 0.0
2014-Nov-13 08:20N 46°00' W 073°10'0 0.0
2014-Nov-13 07:29N 46°00' W 073°10'0 0.0
2014-Nov-13 06:29N 46°00' W 073°10'0 0.0
2014-Nov-13 05:26N 46°00' W 073°10'0 0.0
2014-Nov-13 04:32N 46°00' W 073°10'0 0.0
2014-Nov-13 03:29N 46°00' W 073°10'0 0.0
2014-Nov-13 02:17N 46°00' W 073°10'0 0.0
2014-Nov-13 01:14N 46°00' W 073°10'0 0.0
2014-Nov-13 00:29N 46°00' W 073°10'0 0.0
2014-Nov-12 22:29N 46°00' W 073°10'0 0.0
2014-Nov-12 21:32N 46°00' W 073°10'0 0.0
2014-Nov-12 20:33N 46°00' W 073°10'0 0.0
2014-Nov-12 19:28N 46°00' W 073°10'0 0.0
2014-Nov-12 18:31N 46°00' W 073°10'9 9.8
2014-Nov-12 17:33N 45°52' W 073°16'1414.2
2014-Nov-12 16:33N 45°40' W 073°28'4 3.7
2014-Nov-12 15:33N 45°37' W 073°30'0 0.0
2014-Nov-12 14:33N 45°37' W 073°30'0 0.0
2014-Nov-12 13:33N 45°37' W 073°30'0 0.0
2014-Nov-12 12:33N 45°37' W 073°30'0 0.0
2014-Nov-12 11:33N 45°37' W 073°30'0 0.0
2014-Nov-12 10:33N 45°37' W 073°30'0 0.0
2014-Nov-12 09:33N 45°37' W 073°30'0 0.0
2014-Nov-12 08:33N 45°37' W 073°30'0 0.0
2014-Nov-12 07:33N 45°37' W 073°30'0 0.0
2014-Nov-12 06:33N 45°37' W 073°30'0 0.0
2014-Nov-12 05:33N 45°37' W 073°30'0 0.0
2014-Nov-12 04:33N 45°37' W 073°30'0 0.0
2014-Nov-12 03:33N 45°37' W 073°30'0 0.0
2014-Nov-12 02:33N 45°37' W 073°30'0 0.0
2014-Nov-12 01:33N 45°37' W 073°30'0 0.0
2014-Nov-12 00:33N 45°37' W 073°30'0 0.0
2014-Nov-11 23:33N 45°37' W 073°30'0 0.0
2014-Nov-11 22:33N 45°37' W 073°30'0 0.0
2014-Nov-11 21:33N 45°37' W 073°30'0 0.0
2014-Nov-11 20:33N 45°37' W 073°30'0 0.0
2014-Nov-11 19:33N 45°37' W 073°30'0 0.0
2014-Nov-11 18:33N 45°37' W 073°30'0 0.2
2014-Nov-11 17:33N 45°37' W 073°30'0 0.1
2014-Nov-11 16:33N 45°37' W 073°30'0 0.0
2014-Nov-11 15:29N 45°37' W 073°30'0 0.0
2014-Nov-11 14:32N 45°37' W 073°30'0 0.0
2014-Nov-11 13:32N 45°37' W 073°30'0 0.0
2014-Nov-11 12:32N 45°37' W 073°30'0 0.0
2014-Nov-11 11:32N 45°37' W 073°30'0 0.0
2014-Nov-11 10:32N 45°37' W 073°30'0 0.0
2014-Nov-11 09:32N 45°37' W 073°30'0 0.0
2014-Nov-11 08:32N 45°37' W 073°30'0 0.0
2014-Nov-11 07:32N 45°37' W 073°30'0 0.0
2014-Nov-11 06:32N 45°37' W 073°30'0 0.0
2014-Nov-11 05:32N 45°37' W 073°30'0 0.0
2014-Nov-11 04:32N 45°37' W 073°30'0 0.0
2014-Nov-11 03:32N 45°37' W 073°30'0 0.0
2014-Nov-11 02:32N 45°37' W 073°30'0 0.0
2014-Nov-11 01:32N 45°37' W 073°30'0 0.0
2014-Nov-11 00:32N 45°37' W 073°30'0 0.0
2014-Nov-10 23:32N 45°37' W 073°30'0 0.0
2014-Nov-10 22:32N 45°37' W 073°30'0 0.0
2014-Nov-10 21:32N 45°37' W 073°30'0 0.0
2014-Nov-10 20:32N 45°37' W 073°30'0 0.0
2014-Nov-10 19:32N 45°37' W 073°30'0 0.0
2014-Nov-10 18:32N 45°37' W 073°30'0 0.0
2014-Nov-10 17:29N 45°37' W 073°30'0 0.0
2014-Nov-10 16:32N 45°37' W 073°30'0 0.0
2014-Nov-10 04:32N 45°37' W 073°30'0 0.0
2014-Nov-10 03:29N 45°37' W 073°30'0 0.0
2014-Nov-10 02:32N 45°37' W 073°30'0 0.0
2014-Nov-10 01:32N 45°37' W 073°30'0 0.0
2014-Nov-10 00:32N 45°37' W 073°30'0 0.0
2014-Nov-09 23:32N 45°37' W 073°30'0 0.0
2014-Nov-09 22:32N 45°37' W 073°30'0 0.0
2014-Nov-09 21:32N 45°37' W 073°30'0 0.0
2014-Nov-09 20:32N 45°37' W 073°30'0 0.1
2014-Nov-09 19:32N 45°37' W 073°30'0 0.1
2014-Nov-09 18:32N 45°37' W 073°30'0 0.0
2014-Nov-09 17:32N 45°37' W 073°30'0 0.0
2014-Nov-09 16:32N 45°37' W 073°30'0 0.0
2014-Nov-09 15:32N 45°37' W 073°30'0 0.0
2014-Nov-09 14:32N 45°37' W 073°30'0 0.0
2014-Nov-09 13:32N 45°37' W 073°30'0 0.0
2014-Nov-09 12:32N 45°37' W 073°30'  
Track history (hours):
 
Tides and Currents Weather Stations Pressure Air Temp Water Temp Dewpoint Dewpoint Depression Visibility Wind Speed Wind Dir Waves Ship Positions

Algosea

Last reported at 2014-Nov-19 05:06 UTC. Time now 2014-Nov-24 12:34 UTC.
Position N 44°42' W 063°39'.

Length 144 m; draft 6.5 m.

Type: Ship (hazmat cat C). MMSI: 316006868.

Date/timePositionNaut miles runAvg speedWind from/ knotsBaromVisibWave heightAir tempDewpointWater temp
2014-Nov-19 05:06N 44°42' W 063°39'0 0.0
2014-Nov-19 04:27N 44°42' W 063°39'0 0.0
2014-Nov-19 03:27N 44°42' W 063°39'0 0.0
2014-Nov-19 02:24N 44°42' W 063°39'0 0.1
2014-Nov-19 01:30N 44°42' W 063°39'0 0.0
2014-Nov-19 00:30N 44°42' W 063°39'0 0.0
2014-Nov-18 23:30N 44°42' W 063°39'0 0.0
2014-Nov-18 22:33N 44°42' W 063°39'0 0.0
2014-Nov-18 21:33N 44°42' W 063°39'0 0.0
2014-Nov-18 20:33N 44°42' W 063°39'0 0.0
2014-Nov-18 19:33N 44°42' W 063°39'0 0.0
2014-Nov-18 18:33N 44°42' W 063°39'0 0.0
2014-Nov-18 17:33N 44°42' W 063°39'0 0.0
2014-Nov-18 16:33N 44°42' W 063°39'0 0.0
2014-Nov-18 15:24N 44°42' W 063°39'0 0.0
2014-Nov-18 14:30N 44°42' W 063°39'0 0.0
2014-Nov-18 13:33N 44°42' W 063°39'0 0.0
2014-Nov-18 12:33N 44°42' W 063°39'0 0.0
2014-Nov-18 11:33N 44°42' W 063°39'0 0.0
2014-Nov-18 10:33N 44°42' W 063°39'3 2.9
2014-Nov-18 09:33N 44°40' W 063°35'9 8.6
2014-Nov-18 08:33N 44°32' W 063°31'9 8.8
2014-Nov-18 07:33N 44°28' W 063°20'1210.6
2014-Nov-18 06:24N 44°29' W 063°03'  
2014-Nov-14 12:34N 46°31' W 072°13'1312.8
2014-Nov-14 11:33N 46°23' W 072°27'1211.6
2014-Nov-14 10:33N 46°16' W 072°41'1812.5
2014-Nov-14 09:09N 46°05' W 073°01'811.6
2014-Nov-14 08:29N 46°01' W 073°10'1 1.0
2014-Nov-14 07:33N 45°60' W 073°10'0 0.0
2014-Nov-14 06:32N 45°60' W 073°10'0 0.0
2014-Nov-14 02:32N 45°60' W 073°10'0 0.0
2014-Nov-14 01:26N 45°60' W 073°10'0 0.0
2014-Nov-14 00:29N 45°60' W 073°10'0 0.0
2014-Nov-13 23:29N 45°60' W 073°10'0 0.0
2014-Nov-13 20:32N 45°60' W 073°10'0 0.0
2014-Nov-13 19:32N 45°60' W 073°10'0 0.0
2014-Nov-13 18:32N 45°60' W 073°10'0 0.0
2014-Nov-13 16:23N 45°60' W 073°10'0 0.0
2014-Nov-13 15:32N 45°60' W 073°10'0 0.0
2014-Nov-13 14:32N 45°60' W 073°10'0 0.0
2014-Nov-13 13:32N 45°60' W 073°10'0 0.0
2014-Nov-13 12:32N 45°60' W 073°10'0 0.0
2014-Nov-13 11:32N 45°60' W 073°10'0 0.0
2014-Nov-13 10:32N 45°60' W 073°10'0 0.3
2014-Nov-13 09:26N 46°00' W 073°10'0 0.0
2014-Nov-13 08:20N 46°00' W 073°10'0 0.0
2014-Nov-13 07:29N 46°00' W 073°10'0 0.0
2014-Nov-13 06:29N 46°00' W 073°10'0 0.0
2014-Nov-13 05:26N 46°00' W 073°10'0 0.0
2014-Nov-13 04:32N 46°00' W 073°10'0 0.0
2014-Nov-13 03:29N 46°00' W 073°10'0 0.0
2014-Nov-13 02:17N 46°00' W 073°10'0 0.0
2014-Nov-13 01:14N 46°00' W 073°10'0 0.0
2014-Nov-13 00:29N 46°00' W 073°10'0 0.0
2014-Nov-12 22:29N 46°00' W 073°10'0 0.0
2014-Nov-12 21:32N 46°00' W 073°10'0 0.0
2014-Nov-12 20:33N 46°00' W 073°10'0 0.0
2014-Nov-12 19:28N 46°00' W 073°10'0 0.0
2014-Nov-12 18:31N 46°00' W 073°10'9 9.8
2014-Nov-12 17:33N 45°52' W 073°16'1414.2
2014-Nov-12 16:33N 45°40' W 073°28'4 3.7
2014-Nov-12 15:33N 45°37' W 073°30'0 0.0
2014-Nov-12 14:33N 45°37' W 073°30'0 0.0
2014-Nov-12 13:33N 45°37' W 073°30'0 0.0
2014-Nov-12 12:33N 45°37' W 073°30'0 0.0
2014-Nov-12 11:33N 45°37' W 073°30'0 0.0
2014-Nov-12 10:33N 45°37' W 073°30'0 0.0
2014-Nov-12 09:33N 45°37' W 073°30'0 0.0
2014-Nov-12 08:33N 45°37' W 073°30'0 0.0
2014-Nov-12 07:33N 45°37' W 073°30'0 0.0
2014-Nov-12 06:33N 45°37' W 073°30'0 0.0
2014-Nov-12 05:33N 45°37' W 073°30'0 0.0
2014-Nov-12 04:33N 45°37' W 073°30'0 0.0
2014-Nov-12 03:33N 45°37' W 073°30'0 0.0
2014-Nov-12 02:33N 45°37' W 073°30'0 0.0
2014-Nov-12 01:33N 45°37' W 073°30'0 0.0
2014-Nov-12 00:33N 45°37' W 073°30'0 0.0
2014-Nov-11 23:33N 45°37' W 073°30'0 0.0
2014-Nov-11 22:33N 45°37' W 073°30'0 0.0
2014-Nov-11 21:33N 45°37' W 073°30'0 0.0
2014-Nov-11 20:33N 45°37' W 073°30'0 0.0
2014-Nov-11 19:33N 45°37' W 073°30'0 0.0
2014-Nov-11 18:33N 45°37' W 073°30'0 0.2
2014-Nov-11 17:33N 45°37' W 073°30'0 0.1
2014-Nov-11 16:33N 45°37' W 073°30'0 0.0
2014-Nov-11 15:29N 45°37' W 073°30'0 0.0
2014-Nov-11 14:32N 45°37' W 073°30'0 0.0
2014-Nov-11 13:32N 45°37' W 073°30'0 0.0
2014-Nov-11 12:32N 45°37' W 073°30'0 0.0
2014-Nov-11 11:32N 45°37' W 073°30'0 0.0
2014-Nov-11 10:32N 45°37' W 073°30'0 0.0
2014-Nov-11 09:32N 45°37' W 073°30'0 0.0
2014-Nov-11 08:32N 45°37' W 073°30'0 0.0
2014-Nov-11 07:32N 45°37' W 073°30'0 0.0
2014-Nov-11 06:32N 45°37' W 073°30'0 0.0
2014-Nov-11 05:32N 45°37' W 073°30'0 0.0
2014-Nov-11 04:32N 45°37' W 073°30'0 0.0
2014-Nov-11 03:32N 45°37' W 073°30'0 0.0
2014-Nov-11 02:32N 45°37' W 073°30'0 0.0
2014-Nov-11 01:32N 45°37' W 073°30'0 0.0
2014-Nov-11 00:32N 45°37' W 073°30'0 0.0
2014-Nov-10 23:32N 45°37' W 073°30'0 0.0
2014-Nov-10 22:32N 45°37' W 073°30'0 0.0
2014-Nov-10 21:32N 45°37' W 073°30'0 0.0
2014-Nov-10 20:32N 45°37' W 073°30'0 0.0
2014-Nov-10 19:32N 45°37' W 073°30'0 0.0
2014-Nov-10 18:32N 45°37' W 073°30'0 0.0
2014-Nov-10 17:29N 45°37' W 073°30'0 0.0
2014-Nov-10 16:32N 45°37' W 073°30'0 0.0
2014-Nov-10 04:32N 45°37' W 073°30'0 0.0
2014-Nov-10 03:29N 45°37' W 073°30'0 0.0
2014-Nov-10 02:32N 45°37' W 073°30'0 0.0
2014-Nov-10 01:32N 45°37' W 073°30'0 0.0
2014-Nov-10 00:32N 45°37' W 073°30'0 0.0
2014-Nov-09 23:32N 45°37' W 073°30'0 0.0
2014-Nov-09 22:32N 45°37' W 073°30'0 0.0
2014-Nov-09 21:32N 45°37' W 073°30'0 0.0
2014-Nov-09 20:32N 45°37' W 073°30'0 0.1
2014-Nov-09 19:32N 45°37' W 073°30'0 0.1
2014-Nov-09 18:32N 45°37' W 073°30'0 0.0
2014-Nov-09 17:32N 45°37' W 073°30'0 0.0
2014-Nov-09 16:32N 45°37' W 073°30'0 0.0
2014-Nov-09 15:32N 45°37' W 073°30'0 0.0
2014-Nov-09 14:32N 45°37' W 073°30'0 0.0
2014-Nov-09 13:32N 45°37' W 073°30'0 0.0
2014-Nov-09 12:32N 45°37' W 073°30'  

Dump ship's entire track history